sensor_id;sensor_type;location;lat;lon;timestamp;temperature;humidity
20125;DHT22;10223;50.862;4.360;2023-04-25T00:00:45;10.40;99.90
20125;DHT22;10223;50.862;4.360;2023-04-25T00:03:12;10.30;99.90
20125;DHT22;10223;50.862;4.360;2023-04-25T00:05:40;10.30;99.90
20125;DHT22;10223;50.862;4.360;2023-04-25T00:08:08;10.10;99.90
20125;DHT22;10223;50.862;4.360;2023-04-25T00:10:35;10.10;99.90
20125;DHT22;10223;50.862;4.360;2023-04-25T00:13:02;10.00;99.90
20125;DHT22;10223;50.862;4.360;2023-04-25T00:15:30;10.20;99.90
20125;DHT22;10223;50.862;4.360;2023-04-25T00:17:56;10.20;99.90
20125;DHT22;10223;50.862;4.360;2023-04-25T00:20:23;10.10;99.90
20125;DHT22;10223;50.862;4.360;2023-04-25T00:22:50;10.10;99.90
20125;DHT22;10223;50.862;4.360;2023-04-25T00:25:19;10.10;99.90
20125;DHT22;10223;50.862;4.360;2023-04-25T00:27:46;10.10;99.90
20125;DHT22;10223;50.862;4.360;2023-04-25T00:30:14;10.20;99.90
20125;DHT22;10223;50.862;4.360;2023-04-25T00:32:41;10.30;99.90
20125;DHT22;10223;50.862;4.360;2023-04-25T00:35:09;10.40;99.90
20125;DHT22;10223;50.862;4.360;2023-04-25T00:37:36;10.10;99.90
20125;DHT22;10223;50.862;4.360;2023-04-25T00:40:05;10.10;99.90
20125;DHT22;10223;50.862;4.360;2023-04-25T00:42:35;10.10;99.90
20125;DHT22;10223;50.862;4.360;2023-04-25T00:45:05;10.10;99.90
20125;DHT22;10223;50.862;4.360;2023-04-25T00:47:33;10.00;99.90
20125;DHT22;10223;50.862;4.360;2023-04-25T00:50:00;10.10;99.90
20125;DHT22;10223;50.862;4.360;2023-04-25T00:52:27;10.00;99.90
20125;DHT22;10223;50.862;4.360;2023-04-25T00:54:54;10.10;99.90
20125;DHT22;10223;50.862;4.360;2023-04-25T00:57:21;10.00;99.90
20125;DHT22;10223;50.862;4.360;2023-04-25T00:59:50;10.00;99.90
20125;DHT22;10223;50.862;4.360;2023-04-25T01:02:18;10.00;99.90
20125;DHT22;10223;50.862;4.360;2023-04-25T01:04:45;9.90;99.90
20125;DHT22;10223;50.862;4.360;2023-04-25T01:07:11;9.90;99.90
20125;DHT22;10223;50.862;4.360;2023-04-25T01:09:38;9.80;99.90
20125;DHT22;10223;50.862;4.360;2023-04-25T01:12:06;9.90;99.90
20125;DHT22;10223;50.862;4.360;2023-04-25T01:14:33;9.90;99.90
20125;DHT22;10223;50.862;4.360;2023-04-25T01:17:01;9.80;99.90
20125;DHT22;10223;50.862;4.360;2023-04-25T01:19:28;9.70;99.90
20125;DHT22;10223;50.862;4.360;2023-04-25T01:21:57;9.60;99.90
20125;DHT22;10223;50.862;4.360;2023-04-25T01:24:24;9.70;99.90
20125;DHT22;10223;50.862;4.360;2023-04-25T01:26:51;9.80;99.90
20125;DHT22;10223;50.862;4.360;2023-04-25T01:29:19;9.90;99.90
20125;DHT22;10223;50.862;4.360;2023-04-25T01:31:46;9.80;99.90
20125;DHT22;10223;50.862;4.360;2023-04-25T01:34:13;9.90;99.90
20125;DHT22;10223;50.862;4.360;2023-04-25T01:36:40;9.90;99.90
20125;DHT22;10223;50.862;4.360;2023-04-25T01:39:09;9.90;99.90
20125;DHT22;10223;50.862;4.360;2023-04-25T01:41:36;9.90;99.90
20125;DHT22;10223;50.862;4.360;2023-04-25T01:44:03;9.80;99.90
20125;DHT22;10223;50.862;4.360;2023-04-25T01:46:31;9.80;99.90
20125;DHT22;10223;50.862;4.360;2023-04-25T01:48:58;9.80;99.90
20125;DHT22;10223;50.862;4.360;2023-04-25T01:51:24;9.80;99.90
20125;DHT22;10223;50.862;4.360;2023-04-25T01:53:52;9.90;99.90
20125;DHT22;10223;50.862;4.360;2023-04-25T01:56:20;9.90;99.90
20125;DHT22;10223;50.862;4.360;2023-04-25T01:58:47;9.90;99.90
20125;DHT22;10223;50.862;4.360;2023-04-25T02:01:14;9.70;99.90
20125;DHT22;10223;50.862;4.360;2023-04-25T02:03:41;9.70;99.90
20125;DHT22;10223;50.862;4.360;2023-04-25T02:06:08;9.50;99.90
20125;DHT22;10223;50.862;4.360;2023-04-25T02:08:35;9.60;99.90
20125;DHT22;10223;50.862;4.360;2023-04-25T02:11:02;9.70;99.90
20125;DHT22;10223;50.862;4.360;2023-04-25T02:13:31;9.60;99.90
20125;DHT22;10223;50.862;4.360;2023-04-25T02:15:58;9.40;99.90
20125;DHT22;10223;50.862;4.360;2023-04-25T02:18:24;9.30;99.90
20125;DHT22;10223;50.862;4.360;2023-04-25T02:20:51;9.40;99.90
20125;DHT22;10223;50.862;4.360;2023-04-25T02:23:18;9.40;99.90
20125;DHT22;10223;50.862;4.360;2023-04-25T02:25:45;9.30;99.90
20125;DHT22;10223;50.862;4.360;2023-04-25T02:28:12;9.30;99.90
20125;DHT22;10223;50.862;4.360;2023-04-25T02:30:40;9.30;99.90
20125;DHT22;10223;50.862;4.360;2023-04-25T02:33:07;9.20;99.90
20125;DHT22;10223;50.862;4.360;2023-04-25T02:35:34;9.40;99.90
20125;DHT22;10223;50.862;4.360;2023-04-25T02:38:01;9.50;99.90
20125;DHT22;10223;50.862;4.360;2023-04-25T02:40:28;9.40;99.90
20125;DHT22;10223;50.862;4.360;2023-04-25T02:42:55;9.30;99.90
20125;DHT22;10223;50.862;4.360;2023-04-25T02:45:23;9.20;99.90
20125;DHT22;10223;50.862;4.360;2023-04-25T02:47:51;9.20;99.90
20125;DHT22;10223;50.862;4.360;2023-04-25T02:50:18;9.30;99.90
20125;DHT22;10223;50.862;4.360;2023-04-25T02:52:45;9.30;99.90
20125;DHT22;10223;50.862;4.360;2023-04-25T02:55:12;9.30;99.90
20125;DHT22;10223;50.862;4.360;2023-04-25T02:57:40;9.20;99.90
20125;DHT22;10223;50.862;4.360;2023-04-25T03:00:07;9.20;99.90
20125;DHT22;10223;50.862;4.360;2023-04-25T03:02:37;9.30;99.90
20125;DHT22;10223;50.862;4.360;2023-04-25T03:05:06;9.10;99.90
20125;DHT22;10223;50.862;4.360;2023-04-25T03:07:32;9.10;99.90
20125;DHT22;10223;50.862;4.360;2023-04-25T03:10:00;9.20;99.90
20125;DHT22;10223;50.862;4.360;2023-04-25T03:12:26;9.30;99.90
20125;DHT22;10223;50.862;4.360;2023-04-25T03:14:53;9.30;99.90
20125;DHT22;10223;50.862;4.360;2023-04-25T03:17:20;9.40;99.90
20125;DHT22;10223;50.862;4.360;2023-04-25T03:19:47;9.40;99.90
20125;DHT22;10223;50.862;4.360;2023-04-25T03:22:15;9.20;99.90
20125;DHT22;10223;50.862;4.360;2023-04-25T03:24:42;9.20;99.90
20125;DHT22;10223;50.862;4.360;2023-04-25T03:27:09;9.10;99.90
20125;DHT22;10223;50.862;4.360;2023-04-25T03:29:36;9.10;99.90
20125;DHT22;10223;50.862;4.360;2023-04-25T03:32:03;9.10;99.90
20125;DHT22;10223;50.862;4.360;2023-04-25T03:34:30;9.00;99.90
20125;DHT22;10223;50.862;4.360;2023-04-25T03:36:57;8.90;99.90
20125;DHT22;10223;50.862;4.360;2023-04-25T03:39:25;8.90;99.90
20125;DHT22;10223;50.862;4.360;2023-04-25T03:41:52;8.90;99.90
20125;DHT22;10223;50.862;4.360;2023-04-25T03:44:19;9.00;99.90
20125;DHT22;10223;50.862;4.360;2023-04-25T03:46:45;9.10;99.90
20125;DHT22;10223;50.862;4.360;2023-04-25T03:49:13;9.00;99.90
20125;DHT22;10223;50.862;4.360;2023-04-25T03:51:40;8.80;99.90
20125;DHT22;10223;50.862;4.360;2023-04-25T03:54:07;8.90;99.90
20125;DHT22;10223;50.862;4.360;2023-04-25T03:56:35;9.10;99.90
20125;DHT22;10223;50.862;4.360;2023-04-25T03:59:02;9.00;99.90
20125;DHT22;10223;50.862;4.360;2023-04-25T04:01:28;8.90;99.90
20125;DHT22;10223;50.862;4.360;2023-04-25T04:03:55;8.90;99.90
20125;DHT22;10223;50.862;4.360;2023-04-25T04:06:22;9.00;99.90
20125;DHT22;10223;50.862;4.360;2023-04-25T04:08:49;9.00;99.90
20125;DHT22;10223;50.862;4.360;2023-04-25T04:11:16;8.80;99.90
20125;DHT22;10223;50.862;4.360;2023-04-25T04:13:44;8.60;99.90
20125;DHT22;10223;50.862;4.360;2023-04-25T04:16:11;8.50;99.90
20125;DHT22;10223;50.862;4.360;2023-04-25T04:18:38;8.50;99.90
20125;DHT22;10223;50.862;4.360;2023-04-25T04:21:05;8.50;99.90
20125;DHT22;10223;50.862;4.360;2023-04-25T04:23:31;8.50;99.90
20125;DHT22;10223;50.862;4.360;2023-04-25T04:25:59;8.60;99.90
20125;DHT22;10223;50.862;4.360;2023-04-25T04:28:26;8.70;99.90
20125;DHT22;10223;50.862;4.360;2023-04-25T04:30:54;8.80;99.90
20125;DHT22;10223;50.862;4.360;2023-04-25T04:33:21;9.00;99.90
20125;DHT22;10223;50.862;4.360;2023-04-25T04:35:49;9.00;99.90
20125;DHT22;10223;50.862;4.360;2023-04-25T04:38:17;9.10;99.90
20125;DHT22;10223;50.862;4.360;2023-04-25T04:40:45;9.10;99.90
20125;DHT22;10223;50.862;4.360;2023-04-25T04:43:13;9.20;99.90
20125;DHT22;10223;50.862;4.360;2023-04-25T04:45:42;9.00;99.90
20125;DHT22;10223;50.862;4.360;2023-04-25T04:48:11;9.20;99.90
20125;DHT22;10223;50.862;4.360;2023-04-25T04:50:39;9.10;99.90
20125;DHT22;10223;50.862;4.360;2023-04-25T04:53:07;9.10;99.90
20125;DHT22;10223;50.862;4.360;2023-04-25T04:55:34;8.70;99.90
20125;DHT22;10223;50.862;4.360;2023-04-25T04:58:01;8.60;99.90
20125;DHT22;10223;50.862;4.360;2023-04-25T05:00:28;8.70;99.90
20125;DHT22;10223;50.862;4.360;2023-04-25T05:02:55;8.70;99.90
20125;DHT22;10223;50.862;4.360;2023-04-25T05:05:23;8.70;99.90
20125;DHT22;10223;50.862;4.360;2023-04-25T05:07:50;8.60;99.90
20125;DHT22;10223;50.862;4.360;2023-04-25T05:10:17;8.60;99.90
20125;DHT22;10223;50.862;4.360;2023-04-25T05:12:44;8.60;99.90
20125;DHT22;10223;50.862;4.360;2023-04-25T05:15:11;8.60;99.90
20125;DHT22;10223;50.862;4.360;2023-04-25T05:17:38;8.50;99.90
20125;DHT22;10223;50.862;4.360;2023-04-25T05:20:06;8.40;99.90
20125;DHT22;10223;50.862;4.360;2023-04-25T05:22:36;8.50;99.90
20125;DHT22;10223;50.862;4.360;2023-04-25T05:25:03;8.30;99.90
20125;DHT22;10223;50.862;4.360;2023-04-25T05:27:30;8.20;99.90
20125;DHT22;10223;50.862;4.360;2023-04-25T05:29:57;8.10;99.90
20125;DHT22;10223;50.862;4.360;2023-04-25T05:32:23;8.00;99.90
20125;DHT22;10223;50.862;4.360;2023-04-25T05:34:51;8.00;99.90
20125;DHT22;10223;50.862;4.360;2023-04-25T05:37:18;8.00;99.90
20125;DHT22;10223;50.862;4.360;2023-04-25T05:39:47;8.00;99.90
20125;DHT22;10223;50.862;4.360;2023-04-25T05:42:14;8.30;99.90
20125;DHT22;10223;50.862;4.360;2023-04-25T05:44:40;8.40;99.90
20125;DHT22;10223;50.862;4.360;2023-04-25T05:47:07;8.60;99.90
20125;DHT22;10223;50.862;4.360;2023-04-25T05:49:34;8.80;99.90
20125;DHT22;10223;50.862;4.360;2023-04-25T05:52:01;8.70;99.90
20125;DHT22;10223;50.862;4.360;2023-04-25T05:54:28;8.80;99.90
20125;DHT22;10223;50.862;4.360;2023-04-25T05:56:57;8.70;99.90
20125;DHT22;10223;50.862;4.360;2023-04-25T05:59:24;8.70;99.90
20125;DHT22;10223;50.862;4.360;2023-04-25T06:01:51;9.00;99.90
20125;DHT22;10223;50.862;4.360;2023-04-25T06:04:18;8.80;99.90
20125;DHT22;10223;50.862;4.360;2023-04-25T06:06:45;8.70;99.90
20125;DHT22;10223;50.862;4.360;2023-04-25T06:09:11;8.70;99.90
20125;DHT22;10223;50.862;4.360;2023-04-25T06:11:38;8.80;99.90
20125;DHT22;10223;50.862;4.360;2023-04-25T06:14:07;8.90;99.90
20125;DHT22;10223;50.862;4.360;2023-04-25T06:16:34;8.70;99.90
20125;DHT22;10223;50.862;4.360;2023-04-25T06:19:00;8.70;99.90
20125;DHT22;10223;50.862;4.360;2023-04-25T06:21:27;8.70;99.90
20125;DHT22;10223;50.862;4.360;2023-04-25T06:23:54;8.80;99.90
20125;DHT22;10223;50.862;4.360;2023-04-25T06:26:21;8.90;99.90
20125;DHT22;10223;50.862;4.360;2023-04-25T06:28:48;8.90;99.90
20125;DHT22;10223;50.862;4.360;2023-04-25T06:31:16;9.00;99.90
20125;DHT22;10223;50.862;4.360;2023-04-25T06:33:43;9.10;99.90
20125;DHT22;10223;50.862;4.360;2023-04-25T06:36:10;9.10;99.90
20125;DHT22;10223;50.862;4.360;2023-04-25T06:38:37;9.20;99.90
20125;DHT22;10223;50.862;4.360;2023-04-25T06:41:03;9.20;99.90
20125;DHT22;10223;50.862;4.360;2023-04-25T06:43:30;9.20;99.90
20125;DHT22;10223;50.862;4.360;2023-04-25T06:45:59;9.20;99.90
20125;DHT22;10223;50.862;4.360;2023-04-25T06:48:27;9.20;99.90
20125;DHT22;10223;50.862;4.360;2023-04-25T06:50:55;9.40;99.90
20125;DHT22;10223;50.862;4.360;2023-04-25T06:53:22;9.30;99.90
20125;DHT22;10223;50.862;4.360;2023-04-25T06:55:49;9.20;99.90
20125;DHT22;10223;50.862;4.360;2023-04-25T06:58:15;9.10;99.90
20125;DHT22;10223;50.862;4.360;2023-04-25T07:00:42;9.20;99.90
20125;DHT22;10223;50.862;4.360;2023-04-25T07:03:09;9.20;99.90
20125;DHT22;10223;50.862;4.360;2023-04-25T07:05:38;9.20;99.90
20125;DHT22;10223;50.862;4.360;2023-04-25T07:08:05;9.40;99.90
20125;DHT22;10223;50.862;4.360;2023-04-25T07:10:32;9.40;99.90
20125;DHT22;10223;50.862;4.360;2023-04-25T07:12:58;9.50;99.90
20125;DHT22;10223;50.862;4.360;2023-04-25T07:15:25;9.50;99.90
20125;DHT22;10223;50.862;4.360;2023-04-25T07:17:52;9.50;99.90
20125;DHT22;10223;50.862;4.360;2023-04-25T07:20:19;9.50;99.90
20125;DHT22;10223;50.862;4.360;2023-04-25T07:22:47;9.30;99.90
20125;DHT22;10223;50.862;4.360;2023-04-25T07:25:15;9.50;99.90
20125;DHT22;10223;50.862;4.360;2023-04-25T07:27:42;9.40;99.90
20125;DHT22;10223;50.862;4.360;2023-04-25T07:30:10;9.50;99.90
20125;DHT22;10223;50.862;4.360;2023-04-25T07:32:38;9.60;99.90
20125;DHT22;10223;50.862;4.360;2023-04-25T07:35:05;9.60;99.90
20125;DHT22;10223;50.862;4.360;2023-04-25T07:37:33;9.70;99.90
20125;DHT22;10223;50.862;4.360;2023-04-25T07:40:02;9.70;99.90
20125;DHT22;10223;50.862;4.360;2023-04-25T07:42:30;9.90;99.90
20125;DHT22;10223;50.862;4.360;2023-04-25T07:44:57;9.90;99.90
20125;DHT22;10223;50.862;4.360;2023-04-25T07:47:24;9.80;99.90
20125;DHT22;10223;50.862;4.360;2023-04-25T07:49:51;9.80;99.90
20125;DHT22;10223;50.862;4.360;2023-04-25T07:52:18;9.90;99.90
20125;DHT22;10223;50.862;4.360;2023-04-25T07:54:45;10.00;99.90
20125;DHT22;10223;50.862;4.360;2023-04-25T07:57:14;9.80;99.90
20125;DHT22;10223;50.862;4.360;2023-04-25T07:59:42;10.20;99.90
20125;DHT22;10223;50.862;4.360;2023-04-25T08:02:09;9.80;99.90
20125;DHT22;10223;50.862;4.360;2023-04-25T08:04:36;9.60;99.90
20125;DHT22;10223;50.862;4.360;2023-04-25T08:07:03;9.80;99.90
20125;DHT22;10223;50.862;4.360;2023-04-25T08:09:29;10.00;99.90
20125;DHT22;10223;50.862;4.360;2023-04-25T08:12:00;10.20;99.90
20125;DHT22;10223;50.862;4.360;2023-04-25T08:14:29;10.50;99.90
20125;DHT22;10223;50.862;4.360;2023-04-25T08:17:01;10.60;99.90
20125;DHT22;10223;50.862;4.360;2023-04-25T08:19:28;10.80;99.90
20125;DHT22;10223;50.862;4.360;2023-04-25T08:21:55;10.90;99.90
20125;DHT22;10223;50.862;4.360;2023-04-25T08:24:22;11.00;99.90
20125;DHT22;10223;50.862;4.360;2023-04-25T08:26:51;11.00;99.90
20125;DHT22;10223;50.862;4.360;2023-04-25T08:29:18;11.00;99.90
20125;DHT22;10223;50.862;4.360;2023-04-25T08:31:46;11.10;99.90
20125;DHT22;10223;50.862;4.360;2023-04-25T08:34:13;11.30;99.90
20125;DHT22;10223;50.862;4.360;2023-04-25T08:36:40;11.40;99.90
20125;DHT22;10223;50.862;4.360;2023-04-25T08:39:07;11.10;99.90
20125;DHT22;10223;50.862;4.360;2023-04-25T08:41:35;10.90;99.90
20125;DHT22;10223;50.862;4.360;2023-04-25T08:44:03;11.20;99.90
20125;DHT22;10223;50.862;4.360;2023-04-25T08:46:30;11.70;99.90
20125;DHT22;10223;50.862;4.360;2023-04-25T08:49:01;12.30;99.90
20125;DHT22;10223;50.862;4.360;2023-04-25T08:51:31;12.70;99.90
20125;DHT22;10223;50.862;4.360;2023-04-25T08:54:04;13.00;99.90
20125;DHT22;10223;50.862;4.360;2023-04-25T08:56:35;13.10;99.90
20125;DHT22;10223;50.862;4.360;2023-04-25T08:59:02;13.00;99.90
20125;DHT22;10223;50.862;4.360;2023-04-25T09:01:29;12.70;99.90
20125;DHT22;10223;50.862;4.360;2023-04-25T09:03:58;12.60;99.90
20125;DHT22;10223;50.862;4.360;2023-04-25T09:06:25;12.50;99.90
20125;DHT22;10223;50.862;4.360;2023-04-25T09:08:53;12.30;99.90
20125;DHT22;10223;50.862;4.360;2023-04-25T09:11:20;12.30;99.90
20125;DHT22;10223;50.862;4.360;2023-04-25T09:13:47;12.20;99.90
20125;DHT22;10223;50.862;4.360;2023-04-25T09:16:14;12.00;99.90
20125;DHT22;10223;50.862;4.360;2023-04-25T09:18:42;12.10;99.90
20125;DHT22;10223;50.862;4.360;2023-04-25T09:21:11;11.90;99.90
20125;DHT22;10223;50.862;4.360;2023-04-25T09:23:43;11.50;99.90
20125;DHT22;10223;50.862;4.360;2023-04-25T09:26:14;11.40;99.90
20125;DHT22;10223;50.862;4.360;2023-04-25T09:28:41;11.30;99.90
20125;DHT22;10223;50.862;4.360;2023-04-25T09:31:09;11.00;99.90
20125;DHT22;10223;50.862;4.360;2023-04-25T09:33:37;11.00;99.90
20125;DHT22;10223;50.862;4.360;2023-04-25T09:36:05;10.90;99.90
20125;DHT22;10223;50.862;4.360;2023-04-25T09:38:40;11.10;99.90
20125;DHT22;10223;50.862;4.360;2023-04-25T09:41:08;11.50;99.90
20125;DHT22;10223;50.862;4.360;2023-04-25T09:43:36;11.80;99.90
20125;DHT22;10223;50.862;4.360;2023-04-25T09:46:04;12.30;99.90
20125;DHT22;10223;50.862;4.360;2023-04-25T09:48:34;12.80;99.90
20125;DHT22;10223;50.862;4.360;2023-04-25T09:51:05;13.00;99.90
20125;DHT22;10223;50.862;4.360;2023-04-25T09:53:34;13.40;99.90
20125;DHT22;10223;50.862;4.360;2023-04-25T09:56:04;13.60;99.90
20125;DHT22;10223;50.862;4.360;2023-04-25T09:58:33;13.60;99.90
20125;DHT22;10223;50.862;4.360;2023-04-25T10:01:03;13.30;99.90
20125;DHT22;10223;50.862;4.360;2023-04-25T10:03:30;13.20;99.90
20125;DHT22;10223;50.862;4.360;2023-04-25T10:06:00;13.20;99.90
20125;DHT22;10223;50.862;4.360;2023-04-25T10:08:31;13.20;99.90
20125;DHT22;10223;50.862;4.360;2023-04-25T10:11:01;13.20;99.90
20125;DHT22;10223;50.862;4.360;2023-04-25T10:13:29;13.30;99.90
20125;DHT22;10223;50.862;4.360;2023-04-25T10:15:57;13.60;99.90
20125;DHT22;10223;50.862;4.360;2023-04-25T10:18:25;14.10;99.90
20125;DHT22;10223;50.862;4.360;2023-04-25T10:20:54;14.40;99.90
20125;DHT22;10223;50.862;4.360;2023-04-25T10:23:21;14.80;99.90
20125;DHT22;10223;50.862;4.360;2023-04-25T10:25:49;15.20;99.90
20125;DHT22;10223;50.862;4.360;2023-04-25T10:28:19;15.40;99.90
20125;DHT22;10223;50.862;4.360;2023-04-25T10:31:07;14.70;99.90
20125;DHT22;10223;50.862;4.360;2023-04-25T10:33:35;14.40;99.90
20125;DHT22;10223;50.862;4.360;2023-04-25T10:36:10;14.40;99.90
20125;DHT22;10223;50.862;4.360;2023-04-25T10:38:38;14.60;99.90
20125;DHT22;10223;50.862;4.360;2023-04-25T10:41:06;14.80;99.90
20125;DHT22;10223;50.862;4.360;2023-04-25T10:43:37;14.20;99.90
20125;DHT22;10223;50.862;4.360;2023-04-25T10:46:16;13.70;99.90
20125;DHT22;10223;50.862;4.360;2023-04-25T10:48:48;13.60;99.90
20125;DHT22;10223;50.862;4.360;2023-04-25T10:51:17;13.40;99.90
20125;DHT22;10223;50.862;4.360;2023-04-25T10:53:45;13.20;99.90
20125;DHT22;10223;50.862;4.360;2023-04-25T10:56:16;13.10;99.90
20125;DHT22;10223;50.862;4.360;2023-04-25T10:58:45;13.00;99.90
20125;DHT22;10223;50.862;4.360;2023-04-25T11:01:13;12.90;99.90
20125;DHT22;10223;50.862;4.360;2023-04-25T11:03:41;12.50;99.90
20125;DHT22;10223;50.862;4.360;2023-04-25T11:06:23;12.30;99.90
20125;DHT22;10223;50.862;4.360;2023-04-25T11:08:55;12.10;99.90
20125;DHT22;10223;50.862;4.360;2023-04-25T11:11:22;11.90;99.90
20125;DHT22;10223;50.862;4.360;2023-04-25T11:13:50;11.70;99.90
20125;DHT22;10223;50.862;4.360;2023-04-25T11:16:17;11.60;99.90
20125;DHT22;10223;50.862;4.360;2023-04-25T11:18:44;11.70;99.90
20125;DHT22;10223;50.862;4.360;2023-04-25T11:21:13;12.10;99.90
20125;DHT22;10223;50.862;4.360;2023-04-25T11:23:40;12.20;99.90
20125;DHT22;10223;50.862;4.360;2023-04-25T11:26:06;12.40;99.90
20125;DHT22;10223;50.862;4.360;2023-04-25T11:28:33;12.30;99.90
20125;DHT22;10223;50.862;4.360;2023-04-25T11:31:02;12.40;99.90
20125;DHT22;10223;50.862;4.360;2023-04-25T11:33:30;12.50;99.90
20125;DHT22;10223;50.862;4.360;2023-04-25T11:35:58;12.60;99.90
20125;DHT22;10223;50.862;4.360;2023-04-25T11:38:25;12.80;99.90
20125;DHT22;10223;50.862;4.360;2023-04-25T11:40:52;12.90;99.90
20125;DHT22;10223;50.862;4.360;2023-04-25T11:43:20;13.00;99.90
20125;DHT22;10223;50.862;4.360;2023-04-25T11:45:48;12.80;99.90
20125;DHT22;10223;50.862;4.360;2023-04-25T11:48:17;12.90;99.90
20125;DHT22;10223;50.862;4.360;2023-04-25T11:50:44;12.70;99.90
20125;DHT22;10223;50.862;4.360;2023-04-25T11:53:11;12.90;99.90
20125;DHT22;10223;50.862;4.360;2023-04-25T11:55:38;13.20;99.90
20125;DHT22;10223;50.862;4.360;2023-04-25T11:58:06;13.10;99.90
20125;DHT22;10223;50.862;4.360;2023-04-25T12:00:34;13.20;99.90
20125;DHT22;10223;50.862;4.360;2023-04-25T12:03:01;13.30;99.90
20125;DHT22;10223;50.862;4.360;2023-04-25T12:05:31;13.70;99.90
20125;DHT22;10223;50.862;4.360;2023-04-25T12:08:10;13.80;99.90
20125;DHT22;10223;50.862;4.360;2023-04-25T12:10:38;13.70;99.90
20125;DHT22;10223;50.862;4.360;2023-04-25T12:13:19;13.90;99.90
20125;DHT22;10223;50.862;4.360;2023-04-25T12:15:46;13.80;99.90
20125;DHT22;10223;50.862;4.360;2023-04-25T12:18:13;13.90;99.90
20125;DHT22;10223;50.862;4.360;2023-04-25T12:20:42;13.50;99.90
20125;DHT22;10223;50.862;4.360;2023-04-25T12:23:09;13.10;99.90
20125;DHT22;10223;50.862;4.360;2023-04-25T12:25:38;13.00;99.90
20125;DHT22;10223;50.862;4.360;2023-04-25T12:28:12;12.60;99.90
20125;DHT22;10223;50.862;4.360;2023-04-25T12:30:53;12.40;99.90
20125;DHT22;10223;50.862;4.360;2023-04-25T12:33:20;12.30;99.90
20125;DHT22;10223;50.862;4.360;2023-04-25T12:35:48;12.50;99.90
20125;DHT22;10223;50.862;4.360;2023-04-25T12:38:21;12.80;99.90
20125;DHT22;10223;50.862;4.360;2023-04-25T12:40:48;13.10;99.90
20125;DHT22;10223;50.862;4.360;2023-04-25T12:43:15;13.70;99.90
20125;DHT22;10223;50.862;4.360;2023-04-25T12:45:42;13.90;99.90
20125;DHT22;10223;50.862;4.360;2023-04-25T12:48:09;14.70;99.90
20125;DHT22;10223;50.862;4.360;2023-04-25T12:50:36;15.10;99.90
20125;DHT22;10223;50.862;4.360;2023-04-25T12:53:04;15.00;99.90
20125;DHT22;10223;50.862;4.360;2023-04-25T12:55:31;14.90;99.90
20125;DHT22;10223;50.862;4.360;2023-04-25T12:57:58;14.40;99.90
20125;DHT22;10223;50.862;4.360;2023-04-25T13:00:25;13.80;99.90
20125;DHT22;10223;50.862;4.360;2023-04-25T13:02:52;13.70;99.90
20125;DHT22;10223;50.862;4.360;2023-04-25T13:05:18;13.60;99.90
20125;DHT22;10223;50.862;4.360;2023-04-25T13:07:45;13.40;99.90
20125;DHT22;10223;50.862;4.360;2023-04-25T13:10:14;13.20;99.90
20125;DHT22;10223;50.862;4.360;2023-04-25T13:12:41;13.20;99.90
20125;DHT22;10223;50.862;4.360;2023-04-25T13:15:09;13.30;99.90
20125;DHT22;10223;50.862;4.360;2023-04-25T13:17:37;13.90;99.90
20125;DHT22;10223;50.862;4.360;2023-04-25T13:20:05;14.30;99.90
20125;DHT22;10223;50.862;4.360;2023-04-25T13:22:34;14.90;99.90
20125;DHT22;10223;50.862;4.360;2023-04-25T13:25:02;15.60;99.90
20125;DHT22;10223;50.862;4.360;2023-04-25T13:27:30;16.80;99.90
20125;DHT22;10223;50.862;4.360;2023-04-25T13:29:59;17.40;99.90
20125;DHT22;10223;50.862;4.360;2023-04-25T13:32:26;17.00;99.90
20125;DHT22;10223;50.862;4.360;2023-04-25T13:34:53;18.50;99.90
20125;DHT22;10223;50.862;4.360;2023-04-25T13:37:21;19.70;99.30
20125;DHT22;10223;50.862;4.360;2023-04-25T13:39:49;20.50;95.90
20125;DHT22;10223;50.862;4.360;2023-04-25T13:42:16;21.00;94.90
20125;DHT22;10223;50.862;4.360;2023-04-25T13:44:45;20.50;94.00
20125;DHT22;10223;50.862;4.360;2023-04-25T13:47:11;19.60;91.70
20125;DHT22;10223;50.862;4.360;2023-04-25T13:49:38;19.10;91.70
20125;DHT22;10223;50.862;4.360;2023-04-25T13:52:05;18.50;92.10
20125;DHT22;10223;50.862;4.360;2023-04-25T13:54:33;17.50;95.00
20125;DHT22;10223;50.862;4.360;2023-04-25T13:57:00;16.20;98.90
20125;DHT22;10223;50.862;4.360;2023-04-25T13:59:27;16.10;99.90
20125;DHT22;10223;50.862;4.360;2023-04-25T14:01:55;15.20;99.90
20125;DHT22;10223;50.862;4.360;2023-04-25T14:04:22;14.30;99.90
20125;DHT22;10223;50.862;4.360;2023-04-25T14:06:49;13.60;99.90
20125;DHT22;10223;50.862;4.360;2023-04-25T14:09:16;14.10;99.90
20125;DHT22;10223;50.862;4.360;2023-04-25T14:11:43;15.90;99.90
20125;DHT22;10223;50.862;4.360;2023-04-25T14:14:10;17.20;99.90
20125;DHT22;10223;50.862;4.360;2023-04-25T14:16:37;18.20;98.70
20125;DHT22;10223;50.862;4.360;2023-04-25T14:19:06;18.50;97.50
20125;DHT22;10223;50.862;4.360;2023-04-25T14:21:33;19.20;96.10
20125;DHT22;10223;50.862;4.360;2023-04-25T14:24:00;18.30;95.50
20125;DHT22;10223;50.862;4.360;2023-04-25T14:26:27;18.00;95.90
20125;DHT22;10223;50.862;4.360;2023-04-25T14:28:54;19.50;94.70
20125;DHT22;10223;50.862;4.360;2023-04-25T14:31:21;20.00;93.20
20125;DHT22;10223;50.862;4.360;2023-04-25T14:33:48;19.90;92.50
20125;DHT22;10223;50.862;4.360;2023-04-25T14:36:17;20.80;90.00
20125;DHT22;10223;50.862;4.360;2023-04-25T14:38:43;20.60;87.30
20125;DHT22;10223;50.862;4.360;2023-04-25T14:41:11;20.30;88.30
20125;DHT22;10223;50.862;4.360;2023-04-25T14:43:38;19.50;88.80
20125;DHT22;10223;50.862;4.360;2023-04-25T14:46:05;18.90;91.30
20125;DHT22;10223;50.862;4.360;2023-04-25T14:48:32;18.70;92.30
20125;DHT22;10223;50.862;4.360;2023-04-25T14:50:59;18.70;93.00
20125;DHT22;10223;50.862;4.360;2023-04-25T14:53:27;18.70;93.20
20125;DHT22;10223;50.862;4.360;2023-04-25T14:55:54;19.50;91.90
20125;DHT22;10223;50.862;4.360;2023-04-25T14:58:22;20.50;90.10
20125;DHT22;10223;50.862;4.360;2023-04-25T15:00:49;21.40;87.50
20125;DHT22;10223;50.862;4.360;2023-04-25T15:03:17;22.30;86.10
20125;DHT22;10223;50.862;4.360;2023-04-25T15:05:44;21.10;84.80
20125;DHT22;10223;50.862;4.360;2023-04-25T15:08:10;20.40;89.40
20125;DHT22;10223;50.862;4.360;2023-04-25T15:10:39;21.40;87.70
20125;DHT22;10223;50.862;4.360;2023-04-25T15:13:06;21.20;87.50
20125;DHT22;10223;50.862;4.360;2023-04-25T15:15:33;22.30;83.70
20125;DHT22;10223;50.862;4.360;2023-04-25T15:18:00;20.80;85.20
20125;DHT22;10223;50.862;4.360;2023-04-25T15:20:27;20.70;86.30
20125;DHT22;10223;50.862;4.360;2023-04-25T15:22:55;19.80;86.20
20125;DHT22;10223;50.862;4.360;2023-04-25T15:25:22;18.80;87.50
20125;DHT22;10223;50.862;4.360;2023-04-25T15:27:50;17.50;89.80
20125;DHT22;10223;50.862;4.360;2023-04-25T15:30:19;17.20;90.60
20125;DHT22;10223;50.862;4.360;2023-04-25T15:32:46;16.60;90.70
20125;DHT22;10223;50.862;4.360;2023-04-25T15:35:13;16.30;91.30
20125;DHT22;10223;50.862;4.360;2023-04-25T15:37:41;17.10;91.10
20125;DHT22;10223;50.862;4.360;2023-04-25T15:40:10;18.10;90.80